Time;durP1;ratioP1;P1;durP2;ratioP2;P2;SDS_P1;SDS_P2;PMS_P1;PMS_P2;Temp;Humidity;BMP_temperature;BMP_pressure;BME280_temperature;BME280_humidity;BME280_pressure;Samples;Min_cycle;Max_cycle;Signal;HPM_P1;HPM_P2
2023/07/28 00:00:56;;;;;;;;;;;21.30;54.80;;;20.47;53.57;99927.94;12256869;19;19930;-86
2023/07/28 00:04:58;;;;;;;;;;;21.40;55.30;;;20.51;53.86;99929.25;12255141;19;19911;-87
2023/07/28 00:08:59;;;;;;;;;;;21.40;54.30;;;20.49;53.93;99925.94;12257057;19;19919;-86
2023/07/28 00:13:02;;;;;;;;;;;21.40;54.30;;;20.47;53.74;99915.50;12253921;19;19919;-86
2023/07/28 00:17:04;;;;;;;;;;;21.40;54.40;;;20.48;53.70;99905.72;12250163;19;19978;-86
2023/07/28 00:21:06;;;;;;;;;;;21.40;54.40;;;20.48;53.79;99911.84;12253201;19;19939;-86
2023/07/28 00:25:08;;;;;;;;;;;21.40;54.40;;;20.44;53.85;99902.59;12253954;19;19911;-86
2023/07/28 00:29:09;;;;;;;;;;;21.40;54.70;;;20.54;54.01;99907.72;12254298;19;20265;-86
2023/07/28 00:33:11;;;;;;;;;;;21.40;54.70;;;20.56;53.75;99913.69;12250773;19;20265;-86
2023/07/28 00:37:13;;;;;;;;;;;21.40;54.80;;;20.48;54.07;99885.31;12249229;19;20259;-86
2023/07/28 00:41:16;;;;;;;;;;;21.40;56.40;;;20.50;54.20;99893.13;12251912;19;19934;-87
2023/07/28 00:45:17;;;;;;;;;;;21.40;57.90;;;20.58;54.41;99901.09;12249210;19;19918;-87
2023/07/28 00:49:19;;;;;;;;;;;21.40;55.70;;;20.34;54.18;99849.72;12251680;19;19922;-87
2023/07/28 00:53:22;;;;;;;;;;;21.40;55.40;;;20.55;54.02;99889.00;12249651;19;19982;-87
2023/07/28 00:57:23;;;;;;;;;;;21.40;55.30;;;20.59;54.20;99884.16;12244815;19;20336;-87
2023/07/28 01:01:24;;;;;;;;;;;21.50;55.50;;;20.59;54.32;99880.69;12246628;19;19926;-87
2023/07/28 01:05:33;;;;;;;;;;;21.50;55.10;;;20.60;54.32;99877.84;12244265;19;20249;-87
2023/07/28 01:09:52;;;;;;;;;;;21.50;55.40;;;20.61;54.00;99870.75;12249465;19;19926;-87
2023/07/28 01:13:53;;;;;;;;;;;21.50;55.20;;;20.54;54.46;99865.28;12241087;19;20038;-87
2023/07/28 01:17:55;;;;;;;;;;;21.50;55.40;;;20.61;54.39;99870.75;12242327;19;19922;-87
2023/07/28 01:22:11;;;;;;;;;;;21.50;56.80;;;20.52;54.15;99843.38;12246390;19;19911;-87
2023/07/28 01:26:15;;;;;;;;;;;21.50;56.20;;;20.62;54.26;99859.13;12244186;19;19914;-87
2023/07/28 01:30:17;;;;;;;;;;;21.50;55.60;;;20.63;54.14;99863.41;12247449;19;19927;-87
2023/07/28 01:34:18;;;;;;;;;;;21.50;55.40;;;20.66;54.38;99866.56;12246420;19;19919;-87
2023/07/28 01:38:20;;;;;;;;;;;21.50;55.90;;;20.68;54.22;99866.38;12243115;19;19922;-87
2023/07/28 01:42:21;;;;;;;;;;;21.50;56.10;;;20.59;54.47;99849.69;12244076;19;19926;-87
2023/07/28 01:46:23;;;;;;;;;;;21.50;55.50;;;20.68;54.31;99864.56;12241922;19;19938;-87
2023/07/28 01:50:25;;;;;;;;;;;21.50;55.30;;;20.71;54.34;99864.25;12244916;19;19911;-87
2023/07/28 01:54:26;;;;;;;;;;;21.60;55.60;;;20.69;54.53;99849.50;12243329;19;20268;-87
2023/07/28 01:58:28;;;;;;;;;;;21.50;55.30;;;20.42;54.31;99810.94;12243734;19;19915;-87
2023/07/28 02:02:29;;;;;;;;;;;21.60;55.20;;;20.78;54.78;99856.41;12243851;19;19932;-87
2023/07/28 02:06:31;;;;;;;;;;;21.60;55.40;;;20.60;54.60;99830.09;12243331;19;19926;-87
2023/07/28 02:10:33;;;;;;;;;;;21.60;55.20;;;20.80;54.37;99856.25;12244059;19;19931;-87
2023/07/28 02:14:35;;;;;;;;;;;21.70;55.10;;;20.81;54.58;99857.88;12255883;19;19911;-87
2023/07/28 02:18:36;;;;;;;;;;;21.70;55.20;;;20.82;54.52;99855.06;12255765;19;19918;-87
2023/07/28 02:22:44;;;;;;;;;;;21.70;55.40;;;20.83;54.79;99851.41;12257056;19;19956;-87
2023/07/28 02:26:46;;;;;;;;;;;21.70;55.20;;;20.78;54.39;99849.28;12253219;19;19919;-87
2023/07/28 02:30:47;;;;;;;;;;;21.70;55.20;;;20.82;54.47;99857.72;12256477;19;19919;-87
2023/07/28 02:34:49;;;;;;;;;;;21.70;55.30;;;20.84;54.67;99855.72;12254145;19;19914;-87
2023/07/28 02:38:50;;;;;;;;;;;21.70;55.20;;;20.88;54.93;99867.66;12255325;19;19934;-87
2023/07/28 02:42:53;;;;;;;;;;;21.70;55.30;;;20.80;54.55;99838.50;12256708;19;19970;-87
2023/07/28 02:46:54;;;;;;;;;;;21.70;55.40;;;20.90;54.66;99856.84;12254236;19;19907;-87
2023/07/28 02:50:55;;;;;;;;;;;21.80;55.40;;;20.67;54.75;99817.81;12256269;19;20365;-86
2023/07/28 02:54:57;;;;;;;;;;;21.80;55.40;;;20.86;54.52;99842.28;12254309;19;19944;-86
2023/07/28 02:58:58;;;;;;;;;;;21.80;55.30;;;20.75;54.77;99817.78;12254612;19;19918;-86
2023/07/28 03:03:00;;;;;;;;;;;21.80;55.30;;;20.92;54.62;99836.28;12254487;19;19927;-86
2023/07/28 03:07:02;;;;;;;;;;;21.80;55.30;;;20.95;54.88;99847.38;12251055;19;19915;-86
2023/07/28 03:11:03;;;;;;;;;;;21.80;55.30;;;20.97;54.98;99849.84;12254269;19;19918;-86
2023/07/28 03:15:06;;;;;;;;;;;21.80;55.30;;;20.91;54.97;99830.13;12253128;19;19919;-86
2023/07/28 03:19:08;;;;;;;;;;;21.80;55.50;;;20.81;54.77;99815.44;12251724;19;20325;-86
2023/07/28 03:23:09;;;;;;;;;;;21.80;55.30;;;20.98;54.74;99846.19;12254457;19;19926;-86
2023/07/28 03:27:11;;;;;;;;;;;21.90;55.50;;;20.83;55.15;99818.75;12249517;19;19926;-86
2023/07/28 03:31:12;;;;;;;;;;;21.80;55.40;;;20.99;54.75;99863.78;12253973;19;19948;-86
2023/07/28 03:35:13;;;;;;;;;;;21.90;55.80;;;20.92;55.26;99849.53;12252286;19;19917;-86
2023/07/28 03:39:21;;;;;;;;;;;21.90;55.90;;;20.99;55.24;99858.47;12254112;19;19918;-86
2023/07/28 03:43:24;;;;;;;;;;;21.90;55.80;;;21.04;55.18;99860.63;12251870;19;19914;-86
2023/07/28 03:47:25;;;;;;;;;;;21.90;56.30;;;21.05;54.84;99875.53;12247365;19;19947;-86
2023/07/28 03:51:27;;;;;;;;;;;21.90;55.80;;;20.78;55.29;99828.03;12250715;19;19922;-86
2023/07/28 03:55:28;;;;;;;;;;;21.90;55.60;;;20.97;55.26;99861.28;12250519;19;19943;-86
2023/07/28 03:59:30;;;;;;;;;;;21.90;55.60;;;20.98;55.35;99862.13;12251819;19;19919;-86
2023/07/28 04:03:31;;;;;;;;;;;21.90;55.50;;;21.03;55.19;99870.38;12251159;19;19914;-86
2023/07/28 04:07:32;;;;;;;;;;;21.90;55.80;;;20.75;55.23;99831.03;12246951;19;20337;-86
2023/07/28 04:11:34;;;;;;;;;;;21.90;55.60;;;21.01;54.93;99872.41;12251578;19;20368;-86
2023/07/28 04:15:36;;;;;;;;;;;21.90;55.50;;;20.82;55.12;99843.63;12242594;19;20649;-86
2023/07/28 04:19:37;;;;;;;;;;;21.90;55.70;;;21.10;55.22;99897.09;12250458;19;20261;-88
2023/07/28 04:23:39;;;;;;;;;;;21.90;55.70;;;21.09;55.05;99879.47;12249788;19;19907;-86
2023/07/28 04:27:40;;;;;;;;;;;22.00;55.90;;;20.92;55.35;99855.66;12248378;19;19950;-86
2023/07/28 04:31:42;;;;;;;;;;;22.00;55.80;;;20.86;55.22;99843.09;12247715;19;19933;-86
2023/07/28 04:35:47;;;;;;;;;;;21.90;55.90;;;20.76;55.33;99835.34;12247414;19;19919;-86
2023/07/28 04:39:55;;;;;;;;;;;22.00;55.80;;;21.03;55.40;99864.25;12250930;19;19979;-86
2023/07/28 04:43:57;;;;;;;;;;;22.00;55.80;;;21.03;55.19;99870.38;12250569;19;20264;-86
2023/07/28 04:48:01;;;;;;;;;;;22.00;55.90;;;21.08;55.22;99870.69;12248573;19;20232;-86
2023/07/28 04:52:02;;;;;;;;;;;22.00;56.50;;;21.10;55.36;99870.53;12250536;19;19918;-86
2023/07/28 04:56:22;;;;;;;;;;;22.00;56.20;;;21.18;55.17;99887.25;12244701;19;19919;-87
2023/07/28 05:00:25;;;;;;;;;;;22.00;56.30;;;21.14;55.45;99879.78;12247105;19;20295;-87
2023/07/28 05:04:26;;;;;;;;;;;22.00;55.90;;;21.19;55.71;99896.84;12249601;19;20233;-87
2023/07/28 05:08:28;;;;;;;;;;;22.00;56.00;;;21.13;55.49;99871.00;12247711;19;19927;-87
2023/07/28 05:12:30;;;;;;;;;;;22.10;56.10;;;21.24;55.74;99893.69;12249397;19;19935;-86
2023/07/28 05:16:32;;;;;;;;;;;22.10;56.10;;;21.25;55.52;99894.50;12242352;19;19922;-87
2023/07/28 05:20:45;;;;;;;;;;;22.10;56.40;;;21.25;55.75;99895.31;12249231;19;19978;-87
2023/07/28 05:24:50;;;;;;;;;;;22.10;56.20;;;20.91;55.71;99837.28;12244761;19;19926;-87
2023/07/28 05:28:51;;;;;;;;;;;22.10;56.20;;;21.05;55.39;99859.59;12246262;19;19918;-87
2023/07/28 05:32:56;;;;;;;;;;;22.10;56.10;;;21.29;55.73;99901.13;12246623;19;19918;-87
2023/07/28 05:37:19;;;;;;;;;;;22.10;56.20;;;21.24;55.45;99896.34;12244813;19;19939;-87
2023/07/28 05:41:20;;;;;;;;;;;22.20;56.20;;;21.28;55.75;99902.13;12247739;19;19919;-87
2023/07/28 05:45:22;;;;;;;;;;;22.20;56.10;;;21.34;55.63;99904.91;12247977;19;19919;-87
2023/07/28 05:49:24;;;;;;;;;;;22.20;56.20;;;21.30;55.52;99894.81;12260967;19;19919;-86
2023/07/28 05:53:25;;;;;;;;;;;22.20;56.40;;;21.41;55.79;99918.34;12260114;19;19918;-87
2023/07/28 05:57:31;;;;;;;;;;;22.30;56.30;;;21.37;55.42;99904.59;12253070;19;19922;-89
2023/07/28 06:01:36;;;;;;;;;;;22.30;56.30;;;21.43;55.91;99913.69;12259400;19;19915;-86
2023/07/28 06:05:57;;;;;;;;;;;22.30;56.30;;;21.34;56.01;99907.56;12257419;19;19943;-86
2023/07/28 06:09:59;;;;;;;;;;;22.30;56.20;;;21.48;55.62;99931.78;12258758;19;19935;-86
2023/07/28 06:14:00;;;;;;;;;;;22.30;56.20;;;21.42;55.93;99925.34;12257337;19;19922;-86
2023/07/28 06:18:02;;;;;;;;;;;22.40;56.20;;;21.32;56.03;99901.59;12252010;19;19915;-87
2023/07/28 06:22:04;;;;;;;;;;;22.40;56.40;;;21.44;56.04;99928.63;12257998;19;19915;-85
2023/07/28 06:26:08;;;;;;;;;;;22.40;56.40;;;21.45;56.03;99927.63;12256082;19;19919;-85
2023/07/28 06:30:10;;;;;;;;;;;22.40;56.50;;;21.58;56.08;99957.13;12258525;19;19954;-87
2023/07/28 06:34:12;;;;;;;;;;;22.50;56.50;;;21.61;55.72;99958.59;12255208;19;19929;-87
2023/07/28 06:38:14;;;;;;;;;;;22.50;56.70;;;21.54;55.99;99952.31;12253578;19;19926;-87
2023/07/28 06:42:16;;;;;;;;;;;22.50;57.00;;;21.64;55.76;99964.38;12256384;19;20325;-88
2023/07/28 06:46:18;;;;;;;;;;;22.50;56.70;;;21.64;56.05;99966.22;12255075;19;19943;-87
2023/07/28 06:50:20;;;;;;;;;;;22.50;56.60;;;21.65;55.76;99974.00;12258620;19;19911;-87
2023/07/28 06:54:21;;;;;;;;;;;22.50;56.60;;;21.61;56.07;99967.38;12254005;19;20350;-87
2023/07/28 06:58:23;;;;;;;;;;;22.50;56.50;;;21.72;56.06;99978.63;12251198;19;19919;-87
2023/07/28 07:02:25;;;;;;;;;;;22.60;56.80;;;21.69;56.17;99973.66;12253496;19;19921;-87
2023/07/28 07:06:26;;;;;;;;;;;22.60;58.30;;;21.67;56.21;99970.34;12249736;19;19922;-87
2023/07/28 07:10:28;;;;;;;;;;;22.60;56.90;;;21.75;56.01;99979.09;12251646;19;19950;-87
2023/07/28 07:14:34;;;;;;;;;;;22.60;56.90;;;21.79;56.07;99987.53;12258969;19;19918;-87
2023/07/28 07:18:36;;;;;;;;;;;22.60;56.90;;;21.84;56.19;99993.16;12256289;19;19950;-86
2023/07/28 07:22:37;;;;;;;;;;;22.70;56.80;;;21.81;56.17;99994.34;12258414;19;20397;-87
2023/07/28 07:26:40;;;;;;;;;;;22.70;56.80;;;21.90;56.05;100011.09;12253568;19;19911;-87
2023/07/28 07:30:41;;;;;;;;;;;22.70;56.70;;;21.85;55.86;100000.97;12257506;19;19914;-87
2023/07/28 07:34:42;;;;;;;;;;;22.80;56.90;;;21.91;56.33;99996.78;12257501;19;19926;-87
2023/07/28 07:38:48;;;;;;;;;;;22.70;56.90;;;21.94;56.08;99995.59;12255253;19;19946;-87
2023/07/28 07:42:51;;;;;;;;;;;22.80;56.90;;;21.94;56.21;99991.09;12259566;19;20020;-87
2023/07/28 07:46:52;;;;;;;;;;;22.80;57.10;;;21.98;56.45;99986.25;12253082;19;19910;-87
2023/07/28 07:50:53;;;;;;;;;;;22.90;57.20;;;22.04;56.28;99999.69;12258650;19;19939;-87
2023/07/28 07:54:55;;;;;;;;;;;23.00;57.20;;;22.18;56.49;100007.91;12254680;19;19918;-87
2023/07/28 07:58:56;;;;;;;;;;;23.00;57.20;;;22.19;56.37;100004.25;12255513;19;19915;-87
2023/07/28 08:02:58;;;;;;;;;;;23.10;57.20;;;22.20;56.44;100004.09;12255811;19;20459;-87
2023/07/28 08:07:00;;;;;;;;;;;23.10;57.00;;;22.26;56.54;100019.31;12249721;19;19932;-87
2023/07/28 08:11:02;;;;;;;;;;;23.20;57.40;;;22.29;56.19;100016.31;12253387;19;19926;-88
2023/07/28 08:15:03;;;;;;;;;;;23.20;57.40;;;22.42;56.63;100015.72;12252722;19;19923;-87
2023/07/28 08:19:05;;;;;;;;;;;23.10;57.20;;;22.49;56.42;100035.28;12258247;19;19922;-87
2023/07/28 08:23:07;;;;;;;;;;;23.40;57.40;;;22.50;56.50;100028.94;12256493;19;19926;-87
2023/07/28 08:27:09;;;;;;;;;;;23.40;57.70;;;22.46;56.65;100022.31;12252500;19;19918;-87
2023/07/28 08:31:21;;;;;;;;;;;23.40;57.30;;;22.54;56.32;100016.91;12301302;19;19995;-87
2023/07/28 08:35:23;;;;;;;;;;;23.50;57.80;;;22.67;56.46;100023.47;12304903;19;20289;-87
2023/07/28 08:39:24;;;;;;;;;;;23.60;58.50;;;22.84;56.84;100027.63;12305091;19;19915;-87
2023/07/28 08:43:25;;;;;;;;;;;23.70;58.00;;;22.70;56.65;99992.00;12304162;19;20341;-87
2023/07/28 08:47:27;;;;;;;;;;;23.80;57.80;;;23.07;56.64;100037.44;12305291;19;19918;-86
2023/07/28 08:51:28;;;;;;;;;;;24.00;57.90;;;23.04;56.75;99997.84;12305536;19;19919;-87
2023/07/28 08:55:30;;;;;;;;;;;24.10;58.30;;;23.31;57.02;100017.69;12304169;19;19951;-86
2023/07/28 08:59:31;;;;;;;;;;;24.30;58.40;;;23.43;56.77;100024.19;12306256;19;20272;-87
2023/07/28 09:03:37;;;;;;;;;;;24.40;57.80;;;23.53;56.54;100013.25;12312288;19;19982;-87
2023/07/28 09:07:38;;;;;;;;;;;24.60;58.50;;;23.67;56.50;100040.88;12304829;19;20292;-87
2023/07/28 09:11:45;;;;;;;;;;;24.60;57.70;;;23.62;56.60;100039.59;12309352;19;19919;-86
2023/07/28 09:15:47;;;;;;;;;;;24.70;57.00;;;23.67;56.95;100032.88;12308550;19;19946;-87
2023/07/28 09:19:50;;;;;;;;;;;24.70;57.20;;;23.55;56.76;100029.88;12309063;19;19915;-87
2023/07/28 09:23:51;;;;;;;;;;;24.80;57.00;;;23.64;56.43;100037.56;12308823;19;20303;-86
2023/07/28 09:27:53;;;;;;;;;;;24.80;56.90;;;23.75;56.77;100049.63;12305622;19;20107;-87
2023/07/28 09:32:04;;;;;;;;;;;24.80;57.30;;;23.78;56.93;100054.56;12312310;19;20761;-86
2023/07/28 09:36:10;;;;;;;;;;;24.80;57.00;;;23.95;56.91;100075.69;12295731;19;19941;-86
2023/07/28 09:40:22;;;;;;;;;;;24.90;56.80;;;23.87;56.83;100060.63;12290911;19;19919;-87
2023/07/28 09:44:24;;;;;;;;;;;25.00;56.70;;;23.95;56.70;100070.34;12264260;19;19911;-86
2023/07/28 09:48:27;;;;;;;;;;;25.00;56.70;;;23.93;56.39;100064.41;12256522;19;19915;-85
2023/07/28 09:52:31;;;;;;;;;;;25.00;56.60;;;24.00;56.35;100070.63;12262616;19;20351;-86
2023/07/28 09:56:32;;;;;;;;;;;25.00;56.50;;;24.02;56.41;100081.94;12255467;19;20280;-86
2023/07/28 10:00:34;;;;;;;;;;;25.00;56.80;;;23.96;56.81;100072.03;12263845;19;19932;-86
2023/07/28 10:04:36;;;;;;;;;;;25.00;56.80;;;24.13;56.51;100080.63;12259922;19;20404;-85
2023/07/28 10:08:38;;;;;;;;;;;25.10;57.30;;;24.20;56.90;100090.34;12263154;19;19919;-86
2023/07/28 10:12:49;;;;;;;;;;;25.10;57.10;;;24.27;56.67;100077.88;12262436;19;19919;-86
2023/07/28 10:16:51;;;;;;;;;;;25.20;57.30;;;24.35;56.79;100087.59;12259852;19;19919;-86
2023/07/28 10:20:53;;;;;;;;;;;25.30;56.90;;;24.41;56.39;100097.53;12261682;19;19914;-85
2023/07/28 10:24:56;;;;;;;;;;;25.40;56.90;;;24.48;56.77;100108.31;12262540;19;20009;-86
2023/07/28 10:29:08;;;;;;;;;;;25.40;56.60;;;24.48;56.57;100103.78;12257896;19;20354;-85
2023/07/28 10:33:38;;;;;;;;;;;25.50;56.70;;;24.38;56.41;100073.06;12262452;19;19918;-84
2023/07/28 10:37:45;;;;;;;;;;;25.50;56.80;;;24.59;56.97;100085.59;12258456;19;19923;-86
2023/07/28 10:42:13;;;;;;;;;;;25.60;56.90;;;24.86;56.48;100113.38;12259032;19;19930;-86
2023/07/28 10:46:17;;;;;;;;;;;25.70;57.10;;;24.95;56.89;100106.84;12256864;19;19950;-85
2023/07/28 10:50:20;;;;;;;;;;;25.90;57.10;;;24.91;56.37;100078.88;12256493;19;19922;-86
2023/07/28 10:54:22;;;;;;;;;;;26.00;56.90;;;25.08;56.56;100112.28;12259814;19;19911;-85
2023/07/28 10:58:24;;;;;;;;;;;26.10;56.90;;;25.11;56.65;100125.28;12258911;19;19921;-83
2023/07/28 11:02:27;;;;;;;;;;;26.10;56.50;;;25.04;56.19;100120.91;12258086;19;19914;-85
2023/07/28 11:06:28;;;;;;;;;;;26.00;56.50;;;24.84;56.12;100099.38;12262110;19;19915;-85
2023/07/28 11:10:31;;;;;;;;;;;26.00;56.50;;;24.93;56.46;100108.91;12263308;19;19919;-85
2023/07/28 11:14:32;;;;;;;;;;;25.90;56.50;;;24.90;56.38;100128.00;12264570;19;19907;-84
2023/07/28 11:18:34;;;;;;;;;;;25.90;56.70;;;24.89;56.33;100123.66;12248969;19;19923;-84
2023/07/28 11:22:38;;;;;;;;;;;25.80;57.10;;;25.00;56.67;100115.13;12261777;19;19923;-84
2023/07/28 11:26:39;;;;;;;;;;;25.90;57.40;;;24.99;56.54;100086.75;12256657;19;19935;-84
2023/07/28 11:30:42;;;;;;;;;;;26.00;57.30;;;25.24;56.76;100113.88;12258136;19;19920;-84
2023/07/28 11:34:43;;;;;;;;;;;26.10;57.40;;;25.33;56.48;100127.91;12261284;19;19930;-85
2023/07/28 11:38:45;;;;;;;;;;;26.20;57.10;;;25.36;56.32;100140.91;12261741;19;19930;-86
2023/07/28 11:42:55;;;;;;;;;;;26.30;56.90;;;25.33;56.28;100149.28;12257179;19;19922;-85
2023/07/28 11:46:56;;;;;;;;;;;26.30;56.40;;;25.17;56.07;100135.22;12251526;19;19918;-85
2023/07/28 11:50:57;;;;;;;;;;;26.20;56.10;;;25.14;55.92;100164.13;12254149;19;19918;-85
2023/07/28 11:55:06;;;;;;;;;;;26.20;56.00;;;25.06;56.15;100175.81;12258572;19;19918;-86
2023/07/28 11:59:07;;;;;;;;;;;26.00;56.00;;;24.88;56.07;100172.78;12259387;19;19982;-85
2023/07/28 12:03:10;;;;;;;;;;;25.90;56.00;;;24.71;55.95;100169.53;12254423;19;19947;-85
2023/07/28 12:07:14;;;;;;;;;;;25.80;56.10;;;24.56;55.85;100164.25;12251843;19;19922;-86
2023/07/28 12:11:17;;;;;;;;;;;25.60;56.50;;;24.56;56.15;100169.56;12253138;19;19922;-85
2023/07/28 12:15:20;;;;;;;;;;;25.50;56.30;;;24.64;55.94;100185.47;12256791;19;19936;-85
2023/07/28 12:19:22;;;;;;;;;;;25.40;56.50;;;24.43;56.04;100145.38;12256534;19;19915;-85
2023/07/28 12:23:23;;;;;;;;;;;25.40;56.70;;;24.63;56.46;100181.16;12256133;19;19967;-85
2023/07/28 12:27:26;;;;;;;;;;;25.40;57.00;;;24.62;56.06;100176.81;12252798;19;19922;-87
2023/07/28 12:31:28;;;;;;;;;;;25.40;57.50;;;24.65;55.92;100172.94;12255991;19;19922;-86
2023/07/28 12:35:31;;;;;;;;;;;25.50;57.40;;;24.79;56.10;100188.09;12254557;19;19933;-86
2023/07/28 12:39:38;;;;;;;;;;;25.50;57.30;;;24.80;56.44;100186.25;12249834;19;19955;-87
2023/07/28 12:43:40;;;;;;;;;;;25.60;57.50;;;24.79;56.52;100176.56;12242071;19;19963;-87
2023/07/28 12:47:42;;;;;;;;;;;25.70;57.50;;;24.91;56.13;100193.75;12236799;19;19922;-87
2023/07/28 12:51:43;;;;;;;;;;;25.70;57.00;;;24.92;56.23;100204.25;12244621;19;20312;-87
2023/07/28 12:55:45;;;;;;;;;;;25.80;57.10;;;24.96;56.43;100218.06;12238381;19;19919;-86
2023/07/28 12:59:47;;;;;;;;;;;25.80;56.90;;;24.79;56.03;100201.47;12238266;19;20300;-86
2023/07/28 13:03:48;;;;;;;;;;;25.80;56.80;;;24.89;56.38;100211.81;12241108;19;19930;-86
2023/07/28 13:07:50;;;;;;;;;;;25.70;56.70;;;24.92;55.92;100230.13;12238776;19;19922;-87
2023/07/28 13:11:51;;;;;;;;;;;25.80;56.70;;;24.88;56.04;100234.22;12241482;19;19918;-87
2023/07/28 13:15:53;;;;;;;;;;;25.70;56.70;;;24.71;56.01;100210.41;12245730;19;19919;-87
2023/07/28 13:19:57;;;;;;;;;;;25.70;56.70;;;24.80;56.25;100212.97;12255523;19;19919;-87
2023/07/28 13:23:59;;;;;;;;;;;25.70;56.90;;;24.89;56.17;100235.84;12255538;19;19978;-87
2023/07/28 13:28:00;;;;;;;;;;;25.70;56.70;;;24.87;55.85;100237.88;12253774;19;19921;-86
2023/07/28 13:32:02;;;;;;;;;;;25.70;56.70;;;24.94;56.02;100252.13;12256005;19;19929;-86
2023/07/28 13:36:07;;;;;;;;;;;25.70;56.80;;;24.93;55.96;100245.97;12253752;19;19915;-86
2023/07/28 13:40:08;;;;;;;;;;;25.70;56.90;;;25.02;56.21;100237.84;12255124;19;19929;-87
2023/07/28 13:44:10;;;;;;;;;;;25.70;56.90;;;25.00;56.22;100234.53;12257967;19;19938;-87
2023/07/28 13:48:11;;;;;;;;;;;25.80;56.80;;;25.06;56.18;100245.28;12249054;19;19956;-87
2023/07/28 13:52:13;;;;;;;;;;;25.80;56.90;;;25.10;56.49;100251.88;12255878;19;19950;-87
2023/07/28 13:56:15;;;;;;;;;;;25.90;56.90;;;25.14;56.10;100253.16;12252867;19;19914;-87
2023/07/28 14:00:17;;;;;;;;;;;26.00;57.00;;;25.20;56.20;100273.00;12252336;19;19923;-87
2023/07/28 14:04:19;;;;;;;;;;;26.00;56.70;;;25.16;56.22;100264.50;12256617;19;19946;-87
2023/07/28 14:08:21;;;;;;;;;;;26.00;56.50;;;25.14;55.97;100266.53;12248669;19;19922;-87
2023/07/28 14:12:22;;;;;;;;;;;26.00;56.50;;;25.20;56.02;100288.19;12255771;19;19919;-86
2023/07/28 14:16:24;;;;;;;;;;;26.00;56.40;;;25.21;56.38;100285.31;12257942;19;19919;-85
2023/07/28 14:20:26;;;;;;;;;;;26.00;56.30;;;25.13;56.25;100266.72;12260843;19;19921;-86
2023/07/28 14:24:27;;;;;;;;;;;26.00;56.70;;;25.25;56.21;100285.75;12260501;19;19914;-86
2023/07/28 14:28:29;;;;;;;;;;;26.10;56.20;;;25.23;56.03;100277.94;12258337;19;19919;-86
2023/07/28 14:32:31;;;;;;;;;;;26.10;56.20;;;25.12;56.26;100260.53;12257982;19;19915;-87
2023/07/28 14:36:34;;;;;;;;;;;26.10;56.10;;;25.27;55.84;100287.22;12252852;19;19919;-86
2023/07/28 14:40:36;;;;;;;;;;;26.20;56.10;;;25.15;56.12;100249.50;12260635;19;19929;-86
2023/07/28 14:44:38;;;;;;;;;;;26.20;56.00;;;25.33;56.32;100281.13;12258384;19;20253;-86
2023/07/28 14:48:40;;;;;;;;;;;26.20;56.10;;;25.31;55.90;100263.63;12260150;19;20341;-85
2023/07/28 14:52:41;;;;;;;;;;;26.20;56.10;;;25.38;55.88;100264.50;12255794;19;19922;-86
2023/07/28 14:56:43;;;;;;;;;;;26.20;56.20;;;25.33;56.52;100234.84;12257311;19;19930;-87
2023/07/28 15:00:44;;;;;;;;;;;26.30;56.30;;;25.52;56.28;100260.06;12252646;19;19907;-86
2023/07/28 15:04:48;;;;;;;;;;;26.40;56.30;;;25.69;55.98;100277.50;12255764;19;20050;-86
2023/07/28 15:08:49;;;;;;;;;;;26.50;56.20;;;25.72;56.06;100277.09;12255723;19;19931;-86
2023/07/28 15:12:51;;;;;;;;;;;26.60;56.10;;;25.81;56.11;100289.31;12258448;19;19914;-86
2023/07/28 15:16:52;;;;;;;;;;;26.60;56.10;;;25.80;56.03;100278.81;12256833;19;20914;-86
2023/07/28 15:20:55;;;;;;;;;;;26.70;56.00;;;25.84;56.02;100285.44;12259087;19;19910;-86
2023/07/28 15:24:57;;;;;;;;;;;26.70;55.90;;;25.86;56.02;100282.59;12258104;19;20011;-86
2023/07/28 15:29:00;;;;;;;;;;;26.80;55.60;;;25.82;55.95;100303.53;12258001;19;20321;-87
2023/07/28 15:33:02;;;;;;;;;;;26.80;55.40;;;25.83;55.61;100305.16;12255122;19;19918;-86
2023/07/28 15:37:04;;;;;;;;;;;26.70;55.40;;;25.73;55.62;100288.63;12255632;19;19911;-87
2023/07/28 15:41:05;;;;;;;;;;;26.70;55.50;;;25.82;55.74;100292.84;12258218;19;19914;-86
2023/07/28 15:45:07;;;;;;;;;;;26.70;55.50;;;25.82;56.05;100300.84;12257582;19;19922;-86
2023/07/28 15:49:09;;;;;;;;;;;26.70;55.50;;;25.79;55.79;100299.41;12255973;19;19911;-86
2023/07/28 15:53:10;;;;;;;;;;;26.70;55.50;;;25.78;55.99;100291.56;12256385;19;19942;-86
2023/07/28 15:57:12;;;;;;;;;;;26.70;55.60;;;25.76;55.64;100286.41;12252577;19;19926;-86
2023/07/28 16:01:14;;;;;;;;;;;26.80;55.70;;;25.93;55.69;100324.44;12254883;19;19915;-86
2023/07/28 16:05:15;;;;;;;;;;;26.80;55.50;;;25.85;55.80;100315.72;12259023;19;19927;-85
2023/07/28 16:09:17;;;;;;;;;;;26.80;55.50;;;25.87;55.48;100322.53;12257595;19;20254;-86
2023/07/28 16:13:21;;;;;;;;;;;26.80;55.50;;;25.81;55.83;100318.72;12257360;19;19926;-86
2023/07/28 16:17:22;;;;;;;;;;;26.70;55.40;;;25.85;55.36;100323.75;12253435;19;19936;-85
2023/07/28 16:21:24;;;;;;;;;;;26.70;55.40;;;25.73;55.64;100315.38;12246283;19;19926;-86
2023/07/28 16:25:25;;;;;;;;;;;26.70;55.30;;;25.68;55.70;100312.44;12243240;19;19915;-85
2023/07/28 16:29:27;;;;;;;;;;;26.60;55.30;;;25.65;55.55;100321.69;12245715;19;19919;-85
2023/07/28 16:33:29;;;;;;;;;;;26.60;55.30;;;25.64;55.54;100332.59;12236782;19;20257;-85
2023/07/28 16:37:30;;;;;;;;;;;26.50;55.20;;;25.50;55.62;100313.75;12243546;19;19926;-85
2023/07/28 16:41:32;;;;;;;;;;;26.50;55.20;;;25.60;55.39;100332.16;12245462;19;19919;-85
2023/07/28 16:45:33;;;;;;;;;;;26.50;55.30;;;25.47;55.35;100324.03;12244158;19;20338;-85
2023/07/28 16:49:35;;;;;;;;;;;26.40;55.20;;;25.52;55.57;100351.84;12245432;19;19923;-85
2023/07/28 16:53:37;;;;;;;;;;;26.40;55.20;;;25.45;55.54;100350.13;12256209;19;19919;-86
2023/07/28 16:57:38;;;;;;;;;;;26.30;55.30;;;25.38;55.31;100329.50;12254061;19;19926;-86
2023/07/28 17:01:40;;;;;;;;;;;26.30;55.30;;;25.46;55.34;100347.25;12254114;19;19911;-85
2023/07/28 17:05:41;;;;;;;;;;;26.20;55.30;;;25.30;55.40;100318.09;12257226;19;19915;-86
2023/07/28 17:09:42;;;;;;;;;;;26.20;55.30;;;25.37;55.09;100319.00;12254821;19;19954;-86
2023/07/28 17:13:44;;;;;;;;;;;26.20;55.40;;;25.42;55.07;100323.78;12257070;19;19982;-86
2023/07/28 17:17:45;;;;;;;;;;;26.20;55.50;;;25.17;54.81;100284.88;12255697;19;19951;-87
2023/07/28 17:21:47;;;;;;;;;;;26.20;55.50;;;25.42;55.44;100327.25;12249474;19;20341;-86
2023/07/28 17:25:48;;;;;;;;;;;26.20;55.50;;;25.43;54.82;100334.25;12255841;19;19922;-86
2023/07/28 17:29:50;;;;;;;;;;;26.20;55.50;;;25.48;55.22;100333.69;12253175;19;20342;-85
2023/07/28 17:33:52;;;;;;;;;;;26.20;55.60;;;25.43;55.32;100326.22;12253495;19;19975;-87
2023/07/28 17:37:53;;;;;;;;;;;26.20;55.50;;;25.40;55.25;100321.28;12250885;19;19926;-85
2023/07/28 17:41:55;;;;;;;;;;;26.20;55.50;;;25.49;55.42;100341.53;12256817;19;20240;-86
2023/07/28 17:45:56;;;;;;;;;;;26.10;55.40;;;25.41;55.26;100330.97;12255683;19;20318;-86
2023/07/28 17:49:58;;;;;;;;;;;26.20;55.50;;;25.32;55.00;100318.72;12252874;19;19923;-86
2023/07/28 17:53:59;;;;;;;;;;;26.20;55.50;;;25.46;54.92;100352.59;12257294;19;19975;-86
2023/07/28 17:58:01;;;;;;;;;;;26.20;55.50;;;25.43;55.09;100342.28;12242688;19;19926;-86
2023/07/28 18:02:03;;;;;;;;;;;26.20;55.50;;;25.46;55.13;100335.72;12256314;19;19922;-86
2023/07/28 18:06:04;;;;;;;;;;;26.20;55.50;;;25.36;55.14;100325.38;12252037;19;20052;-85
2023/07/28 18:10:06;;;;;;;;;;;26.20;55.50;;;25.39;55.16;100341.84;12251975;19;19923;-86
2023/07/28 18:14:07;;;;;;;;;;;26.20;55.40;;;25.40;55.09;100353.34;12253595;19;19926;-86